sensor_id;sensor_type;location;lat;lon;timestamp;temperature;humidity
24802;DHT22;12898;50.520;12.152;2024-03-23T00:56:04;5.40;99.90
24802;DHT22;12898;50.520;12.152;2024-03-23T00:58:30;5.30;99.90
24802;DHT22;12898;50.520;12.152;2024-03-23T01:00:56;5.20;99.90
24802;DHT22;12898;50.520;12.152;2024-03-23T01:03:22;5.20;99.90
24802;DHT22;12898;50.520;12.152;2024-03-23T01:05:47;5.10;99.90
24802;DHT22;12898;50.520;12.152;2024-03-23T01:08:14;5.10;99.90
24802;DHT22;12898;50.520;12.152;2024-03-23T01:10:40;5.00;99.90
24802;DHT22;12898;50.520;12.152;2024-03-23T01:13:06;5.00;99.90
24802;DHT22;12898;50.520;12.152;2024-03-23T01:15:31;4.90;99.90
24802;DHT22;12898;50.520;12.152;2024-03-23T01:17:57;4.90;99.90
24802;DHT22;12898;50.520;12.152;2024-03-23T01:20:23;4.80;99.90
24802;DHT22;12898;50.520;12.152;2024-03-23T01:22:48;4.80;99.90
24802;DHT22;12898;50.520;12.152;2024-03-23T01:25:14;4.70;99.90
24802;DHT22;12898;50.520;12.152;2024-03-23T01:27:39;4.70;99.90
24802;DHT22;12898;50.520;12.152;2024-03-23T01:30:05;4.60;99.90
24802;DHT22;12898;50.520;12.152;2024-03-23T01:32:31;4.50;99.90
24802;DHT22;12898;50.520;12.152;2024-03-23T01:34:57;4.50;99.90
24802;DHT22;12898;50.520;12.152;2024-03-23T01:37:22;4.40;99.90
24802;DHT22;12898;50.520;12.152;2024-03-23T01:39:48;4.30;99.90
24802;DHT22;12898;50.520;12.152;2024-03-23T01:42:14;4.30;99.90
24802;DHT22;12898;50.520;12.152;2024-03-23T01:44:40;4.30;99.90
24802;DHT22;12898;50.520;12.152;2024-03-23T01:47:06;4.30;99.90
24802;DHT22;12898;50.520;12.152;2024-03-23T01:49:33;4.30;99.90
24802;DHT22;12898;50.520;12.152;2024-03-23T01:51:59;4.30;99.90
24802;DHT22;12898;50.520;12.152;2024-03-23T01:54:25;4.30;99.90
24802;DHT22;12898;50.520;12.152;2024-03-23T01:56:51;4.30;99.90
24802;DHT22;12898;50.520;12.152;2024-03-23T01:59:16;4.20;99.90
24802;DHT22;12898;50.520;12.152;2024-03-23T02:01:42;4.20;99.90
24802;DHT22;12898;50.520;12.152;2024-03-23T02:04:08;4.20;99.90
24802;DHT22;12898;50.520;12.152;2024-03-23T02:06:35;4.20;99.90
24802;DHT22;12898;50.520;12.152;2024-03-23T02:09:00;4.20;99.90
24802;DHT22;12898;50.520;12.152;2024-03-23T02:11:26;4.10;99.90
24802;DHT22;12898;50.520;12.152;2024-03-23T02:13:52;4.10;99.90
24802;DHT22;12898;50.520;12.152;2024-03-23T02:16:18;4.00;99.90
24802;DHT22;12898;50.520;12.152;2024-03-23T02:18:44;4.00;99.90
24802;DHT22;12898;50.520;12.152;2024-03-23T02:21:10;4.00;99.90
24802;DHT22;12898;50.520;12.152;2024-03-23T02:23:35;3.90;99.90
24802;DHT22;12898;50.520;12.152;2024-03-23T02:26:01;3.90;99.90
24802;DHT22;12898;50.520;12.152;2024-03-23T02:28:27;3.90;99.90
24802;DHT22;12898;50.520;12.152;2024-03-23T02:30:53;4.00;99.90
24802;DHT22;12898;50.520;12.152;2024-03-23T02:33:18;4.00;99.90
24802;DHT22;12898;50.520;12.152;2024-03-23T02:35:45;4.10;99.90
24802;DHT22;12898;50.520;12.152;2024-03-23T02:38:11;4.10;99.90
24802;DHT22;12898;50.520;12.152;2024-03-23T02:40:36;4.30;99.90
24802;DHT22;12898;50.520;12.152;2024-03-23T02:43:03;4.40;99.90
24802;DHT22;12898;50.520;12.152;2024-03-23T02:45:29;4.50;99.90
24802;DHT22;12898;50.520;12.152;2024-03-23T02:47:55;4.60;99.90
24802;DHT22;12898;50.520;12.152;2024-03-23T02:50:21;4.70;99.90
24802;DHT22;12898;50.520;12.152;2024-03-23T02:52:47;4.80;99.90
24802;DHT22;12898;50.520;12.152;2024-03-23T02:55:13;4.90;99.90
24802;DHT22;12898;50.520;12.152;2024-03-23T02:57:40;5.00;99.90
24802;DHT22;12898;50.520;12.152;2024-03-23T03:00:06;5.00;99.90
24802;DHT22;12898;50.520;12.152;2024-03-23T03:02:33;5.10;99.90
24802;DHT22;12898;50.520;12.152;2024-03-23T03:04:59;5.10;99.90
24802;DHT22;12898;50.520;12.152;2024-03-23T03:07:25;5.10;99.90
24802;DHT22;12898;50.520;12.152;2024-03-23T03:09:51;5.10;99.90
24802;DHT22;12898;50.520;12.152;2024-03-23T03:12:16;5.10;99.90
24802;DHT22;12898;50.520;12.152;2024-03-23T03:14:42;5.00;99.90
24802;DHT22;12898;50.520;12.152;2024-03-23T03:17:08;5.00;99.90
24802;DHT22;12898;50.520;12.152;2024-03-23T03:19:34;5.00;99.90
24802;DHT22;12898;50.520;12.152;2024-03-23T03:22:00;4.80;99.90
24802;DHT22;12898;50.520;12.152;2024-03-23T03:24:25;4.70;99.90
24802;DHT22;12898;50.520;12.152;2024-03-23T03:26:51;4.50;99.90
24802;DHT22;12898;50.520;12.152;2024-03-23T03:29:17;4.40;99.90
24802;DHT22;12898;50.520;12.152;2024-03-23T03:31:43;4.30;99.90
24802;DHT22;12898;50.520;12.152;2024-03-23T03:34:09;4.20;99.90
24802;DHT22;12898;50.520;12.152;2024-03-23T03:36:35;4.20;99.90
24802;DHT22;12898;50.520;12.152;2024-03-23T03:39:00;4.10;99.90
24802;DHT22;12898;50.520;12.152;2024-03-23T03:41:28;4.10;99.90
24802;DHT22;12898;50.520;12.152;2024-03-23T03:43:54;4.10;99.90
24802;DHT22;12898;50.520;12.152;2024-03-23T03:46:20;4.00;99.90
24802;DHT22;12898;50.520;12.152;2024-03-23T03:48:46;3.90;99.90
24802;DHT22;12898;50.520;12.152;2024-03-23T03:51:13;3.90;99.90
24802;DHT22;12898;50.520;12.152;2024-03-23T03:53:39;3.80;99.90
24802;DHT22;12898;50.520;12.152;2024-03-23T03:56:05;3.70;99.90
24802;DHT22;12898;50.520;12.152;2024-03-23T03:58:32;3.70;99.90
24802;DHT22;12898;50.520;12.152;2024-03-23T04:00:57;3.60;99.90
24802;DHT22;12898;50.520;12.152;2024-03-23T04:03:23;3.60;99.90
24802;DHT22;12898;50.520;12.152;2024-03-23T04:05:55;3.60;99.90
24802;DHT22;12898;50.520;12.152;2024-03-23T04:08:21;3.60;99.90
24802;DHT22;12898;50.520;12.152;2024-03-23T04:10:47;3.60;99.90
24802;DHT22;12898;50.520;12.152;2024-03-23T04:13:13;3.60;99.90
24802;DHT22;12898;50.520;12.152;2024-03-23T04:15:39;3.70;99.90
24802;DHT22;12898;50.520;12.152;2024-03-23T04:18:05;3.60;99.90
24802;DHT22;12898;50.520;12.152;2024-03-23T04:20:31;3.60;99.90
24802;DHT22;12898;50.520;12.152;2024-03-23T04:23:00;3.60;99.90
24802;DHT22;12898;50.520;12.152;2024-03-23T04:25:26;3.50;99.90
24802;DHT22;12898;50.520;12.152;2024-03-23T04:27:52;3.50;99.90
24802;DHT22;12898;50.520;12.152;2024-03-23T04:30:18;3.60;99.90
24802;DHT22;12898;50.520;12.152;2024-03-23T04:32:44;3.70;99.90
24802;DHT22;12898;50.520;12.152;2024-03-23T04:35:10;3.80;99.90
24802;DHT22;12898;50.520;12.152;2024-03-23T04:37:39;3.90;99.90
24802;DHT22;12898;50.520;12.152;2024-03-23T04:40:08;3.90;99.90
24802;DHT22;12898;50.520;12.152;2024-03-23T04:42:34;4.00;99.90
24802;DHT22;12898;50.520;12.152;2024-03-23T04:45:00;4.20;99.90
24802;DHT22;12898;50.520;12.152;2024-03-23T04:47:26;4.30;99.90
24802;DHT22;12898;50.520;12.152;2024-03-23T04:49:52;4.40;99.90
24802;DHT22;12898;50.520;12.152;2024-03-23T04:52:18;4.40;99.90
24802;DHT22;12898;50.520;12.152;2024-03-23T04:54:44;4.50;99.90
24802;DHT22;12898;50.520;12.152;2024-03-23T04:57:11;4.50;99.90
24802;DHT22;12898;50.520;12.152;2024-03-23T04:59:37;4.60;99.90
24802;DHT22;12898;50.520;12.152;2024-03-23T05:02:02;4.70;99.90
24802;DHT22;12898;50.520;12.152;2024-03-23T05:04:28;5.00;99.90
24802;DHT22;12898;50.520;12.152;2024-03-23T05:06:54;5.20;99.90
24802;DHT22;12898;50.520;12.152;2024-03-23T05:09:20;5.50;99.90
24802;DHT22;12898;50.520;12.152;2024-03-23T05:11:46;5.70;99.90
24802;DHT22;12898;50.520;12.152;2024-03-23T05:14:13;5.80;99.90
24802;DHT22;12898;50.520;12.152;2024-03-23T05:16:39;6.00;99.90
24802;DHT22;12898;50.520;12.152;2024-03-23T05:19:05;6.20;99.90
24802;DHT22;12898;50.520;12.152;2024-03-23T05:21:31;6.30;99.90
24802;DHT22;12898;50.520;12.152;2024-03-23T05:24:00;6.40;99.90
24802;DHT22;12898;50.520;12.152;2024-03-23T05:26:25;6.40;99.90
24802;DHT22;12898;50.520;12.152;2024-03-23T05:28:51;6.50;99.90
24802;DHT22;12898;50.520;12.152;2024-03-23T05:31:28;6.60;99.90
24802;DHT22;12898;50.520;12.152;2024-03-23T05:33:54;6.60;99.90
24802;DHT22;12898;50.520;12.152;2024-03-23T05:36:20;6.70;99.90
24802;DHT22;12898;50.520;12.152;2024-03-23T05:38:47;6.80;99.90
24802;DHT22;12898;50.520;12.152;2024-03-23T05:41:13;6.80;99.90
24802;DHT22;12898;50.520;12.152;2024-03-23T05:43:39;6.80;99.90
24802;DHT22;12898;50.520;12.152;2024-03-23T05:46:05;6.90;99.90
24802;DHT22;12898;50.520;12.152;2024-03-23T05:48:31;6.90;99.90
24802;DHT22;12898;50.520;12.152;2024-03-23T05:50:57;7.00;99.90
24802;DHT22;12898;50.520;12.152;2024-03-23T05:53:23;7.00;99.90
24802;DHT22;12898;50.520;12.152;2024-03-23T05:55:50;7.00;99.90
24802;DHT22;12898;50.520;12.152;2024-03-23T05:58:19;7.00;99.90
24802;DHT22;12898;50.520;12.152;2024-03-23T06:00:45;7.00;99.90
24802;DHT22;12898;50.520;12.152;2024-03-23T06:03:11;7.00;99.90
24802;DHT22;12898;50.520;12.152;2024-03-23T06:05:38;7.00;99.90
24802;DHT22;12898;50.520;12.152;2024-03-23T06:08:04;7.10;99.90
24802;DHT22;12898;50.520;12.152;2024-03-23T06:10:30;7.10;99.90
24802;DHT22;12898;50.520;12.152;2024-03-23T06:12:57;7.10;99.90
24802;DHT22;12898;50.520;12.152;2024-03-23T06:15:24;7.20;99.90
24802;DHT22;12898;50.520;12.152;2024-03-23T06:17:50;7.20;99.90
24802;DHT22;12898;50.520;12.152;2024-03-23T06:20:16;7.30;99.90
24802;DHT22;12898;50.520;12.152;2024-03-23T06:22:41;7.30;99.90
24802;DHT22;12898;50.520;12.152;2024-03-23T06:25:07;7.40;99.90
24802;DHT22;12898;50.520;12.152;2024-03-23T06:27:33;7.50;99.90
24802;DHT22;12898;50.520;12.152;2024-03-23T06:30:00;7.60;99.90
24802;DHT22;12898;50.520;12.152;2024-03-23T06:32:26;7.70;99.90
24802;DHT22;12898;50.520;12.152;2024-03-23T06:34:52;7.80;99.90
24802;DHT22;12898;50.520;12.152;2024-03-23T06:37:18;7.90;99.90
24802;DHT22;12898;50.520;12.152;2024-03-23T06:39:46;8.10;99.90
24802;DHT22;12898;50.520;12.152;2024-03-23T06:42:12;8.20;99.90
24802;DHT22;12898;50.520;12.152;2024-03-23T06:44:37;8.30;99.90
24802;DHT22;12898;50.520;12.152;2024-03-23T06:47:03;8.40;99.90
24802;DHT22;12898;50.520;12.152;2024-03-23T06:49:29;8.50;99.90
24802;DHT22;12898;50.520;12.152;2024-03-23T06:51:55;8.60;99.90
24802;DHT22;12898;50.520;12.152;2024-03-23T06:54:20;8.60;99.90
24802;DHT22;12898;50.520;12.152;2024-03-23T06:56:46;8.70;99.90
24802;DHT22;12898;50.520;12.152;2024-03-23T06:59:12;8.70;99.90
24802;DHT22;12898;50.520;12.152;2024-03-23T07:01:38;8.70;99.90
24802;DHT22;12898;50.520;12.152;2024-03-23T07:04:04;8.80;99.90
24802;DHT22;12898;50.520;12.152;2024-03-23T07:06:31;8.90;99.90
24802;DHT22;12898;50.520;12.152;2024-03-23T07:08:56;9.00;99.90
24802;DHT22;12898;50.520;12.152;2024-03-23T07:11:23;9.10;99.90
24802;DHT22;12898;50.520;12.152;2024-03-23T07:13:52;9.20;99.90
24802;DHT22;12898;50.520;12.152;2024-03-23T07:16:22;9.30;99.90
24802;DHT22;12898;50.520;12.152;2024-03-23T07:18:47;9.40;99.90
24802;DHT22;12898;50.520;12.152;2024-03-23T07:21:15;9.60;99.90
24802;DHT22;12898;50.520;12.152;2024-03-23T07:23:44;9.80;99.90
24802;DHT22;12898;50.520;12.152;2024-03-23T07:26:10;9.90;99.90
24802;DHT22;12898;50.520;12.152;2024-03-23T07:28:36;10.00;99.90
24802;DHT22;12898;50.520;12.152;2024-03-23T07:33:37;9.90;99.90
24802;DHT22;12898;50.520;12.152;2024-03-23T07:36:06;10.00;99.90
24802;DHT22;12898;50.520;12.152;2024-03-23T07:38:32;10.00;99.90
24802;DHT22;12898;50.520;12.152;2024-03-23T07:41:05;10.00;99.90
24802;DHT22;12898;50.520;12.152;2024-03-23T07:43:31;10.00;99.90
24802;DHT22;12898;50.520;12.152;2024-03-23T07:45:57;9.90;99.90
24802;DHT22;12898;50.520;12.152;2024-03-23T07:48:23;9.90;99.90
24802;DHT22;12898;50.520;12.152;2024-03-23T07:51:03;9.90;99.90
24802;DHT22;12898;50.520;12.152;2024-03-23T07:53:30;9.90;99.90
24802;DHT22;12898;50.520;12.152;2024-03-23T07:55:57;10.00;99.90
24802;DHT22;12898;50.520;12.152;2024-03-23T07:58:31;10.10;99.90
24802;DHT22;12898;50.520;12.152;2024-03-23T08:01:21;10.00;99.90
24802;DHT22;12898;50.520;12.152;2024-03-23T08:03:47;10.10;99.90
24802;DHT22;12898;50.520;12.152;2024-03-23T08:06:15;10.00;99.90
24802;DHT22;12898;50.520;12.152;2024-03-23T08:08:43;9.90;99.90
24802;DHT22;12898;50.520;12.152;2024-03-23T08:11:10;9.90;99.90
24802;DHT22;12898;50.520;12.152;2024-03-23T08:13:39;9.80;99.90
24802;DHT22;12898;50.520;12.152;2024-03-23T08:16:05;9.80;99.90
24802;DHT22;12898;50.520;12.152;2024-03-23T08:18:32;9.70;99.90
24802;DHT22;12898;50.520;12.152;2024-03-23T08:21:02;9.70;99.90
24802;DHT22;12898;50.520;12.152;2024-03-23T08:23:30;9.70;99.90
24802;DHT22;12898;50.520;12.152;2024-03-23T08:26:00;9.80;99.90
24802;DHT22;12898;50.520;12.152;2024-03-23T08:28:27;9.80;99.90
24802;DHT22;12898;50.520;12.152;2024-03-23T08:30:53;9.80;99.90
24802;DHT22;12898;50.520;12.152;2024-03-23T08:33:20;9.70;99.90
24802;DHT22;12898;50.520;12.152;2024-03-23T08:35:56;9.70;99.90
24802;DHT22;12898;50.520;12.152;2024-03-23T08:38:24;9.60;99.90
24802;DHT22;12898;50.520;12.152;2024-03-23T08:41:00;9.50;99.90
24802;DHT22;12898;50.520;12.152;2024-03-23T08:43:31;9.40;99.90
24802;DHT22;12898;50.520;12.152;2024-03-23T08:46:12;9.30;99.90
24802;DHT22;12898;50.520;12.152;2024-03-23T08:48:40;9.20;99.90
24802;DHT22;12898;50.520;12.152;2024-03-23T08:51:09;9.00;99.90
24802;DHT22;12898;50.520;12.152;2024-03-23T08:53:36;8.80;99.90
24802;DHT22;12898;50.520;12.152;2024-03-23T08:56:02;8.60;99.90
24802;DHT22;12898;50.520;12.152;2024-03-23T08:58:29;8.50;99.90
24802;DHT22;12898;50.520;12.152;2024-03-23T09:01:02;8.30;99.90
24802;DHT22;12898;50.520;12.152;2024-03-23T09:03:41;8.10;99.90
24802;DHT22;12898;50.520;12.152;2024-03-23T09:06:14;7.70;99.90
24802;DHT22;12898;50.520;12.152;2024-03-23T09:08:40;7.30;99.90
24802;DHT22;12898;50.520;12.152;2024-03-23T09:11:08;6.90;99.90
24802;DHT22;12898;50.520;12.152;2024-03-23T09:13:36;6.60;99.90
24802;DHT22;12898;50.520;12.152;2024-03-23T09:16:03;6.30;99.90
24802;DHT22;12898;50.520;12.152;2024-03-23T09:18:32;6.10;99.90
24802;DHT22;12898;50.520;12.152;2024-03-23T09:20:59;6.00;99.90
24802;DHT22;12898;50.520;12.152;2024-03-23T09:23:25;5.90;99.90
24802;DHT22;12898;50.520;12.152;2024-03-23T09:25:50;5.80;99.90
24802;DHT22;12898;50.520;12.152;2024-03-23T09:28:16;5.80;99.90
24802;DHT22;12898;50.520;12.152;2024-03-23T09:30:42;5.70;99.90
24802;DHT22;12898;50.520;12.152;2024-03-23T09:33:12;5.70;99.90
24802;DHT22;12898;50.520;12.152;2024-03-23T09:35:38;5.70;99.90
24802;DHT22;12898;50.520;12.152;2024-03-23T09:38:04;5.80;99.90
24802;DHT22;12898;50.520;12.152;2024-03-23T09:40:31;5.90;99.90
24802;DHT22;12898;50.520;12.152;2024-03-23T09:42:57;6.00;99.90
24802;DHT22;12898;50.520;12.152;2024-03-23T09:45:27;6.20;99.90
24802;DHT22;12898;50.520;12.152;2024-03-23T09:47:55;6.20;99.90
24802;DHT22;12898;50.520;12.152;2024-03-23T09:50:22;6.30;99.90
24802;DHT22;12898;50.520;12.152;2024-03-23T09:52:48;6.40;99.90
24802;DHT22;12898;50.520;12.152;2024-03-23T09:55:14;6.40;99.90
24802;DHT22;12898;50.520;12.152;2024-03-23T09:57:41;6.50;99.90
24802;DHT22;12898;50.520;12.152;2024-03-23T10:00:07;6.50;99.90
24802;DHT22;12898;50.520;12.152;2024-03-23T10:02:34;6.50;99.90
24802;DHT22;12898;50.520;12.152;2024-03-23T10:05:00;6.40;99.90
24802;DHT22;12898;50.520;12.152;2024-03-23T10:07:26;6.20;99.90
24802;DHT22;12898;50.520;12.152;2024-03-23T10:09:54;6.00;99.90
24802;DHT22;12898;50.520;12.152;2024-03-23T10:12:20;5.80;99.90
24802;DHT22;12898;50.520;12.152;2024-03-23T10:14:46;5.70;99.90
24802;DHT22;12898;50.520;12.152;2024-03-23T10:17:13;5.80;99.90
24802;DHT22;12898;50.520;12.152;2024-03-23T10:19:46;5.90;99.90
24802;DHT22;12898;50.520;12.152;2024-03-23T10:22:21;6.10;99.90
24802;DHT22;12898;50.520;12.152;2024-03-23T10:24:49;6.30;99.90
24802;DHT22;12898;50.520;12.152;2024-03-23T10:27:21;6.40;99.90
24802;DHT22;12898;50.520;12.152;2024-03-23T10:29:50;6.50;99.90
24802;DHT22;12898;50.520;12.152;2024-03-23T10:32:17;6.50;99.90
24802;DHT22;12898;50.520;12.152;2024-03-23T10:34:44;6.60;99.90
24802;DHT22;12898;50.520;12.152;2024-03-23T10:37:10;6.80;99.90
24802;DHT22;12898;50.520;12.152;2024-03-23T10:39:41;7.00;99.90
24802;DHT22;12898;50.520;12.152;2024-03-23T10:42:08;7.00;99.90
24802;DHT22;12898;50.520;12.152;2024-03-23T10:44:36;7.10;99.90
24802;DHT22;12898;50.520;12.152;2024-03-23T10:47:04;7.30;99.90
24802;DHT22;12898;50.520;12.152;2024-03-23T10:49:32;7.40;99.90
24802;DHT22;12898;50.520;12.152;2024-03-23T10:52:02;7.50;99.90
24802;DHT22;12898;50.520;12.152;2024-03-23T10:54:32;7.60;99.90
24802;DHT22;12898;50.520;12.152;2024-03-23T10:57:17;7.70;99.90
24802;DHT22;12898;50.520;12.152;2024-03-23T10:59:44;7.70;99.90
24802;DHT22;12898;50.520;12.152;2024-03-23T11:02:19;7.90;99.90
24802;DHT22;12898;50.520;12.152;2024-03-23T11:04:46;8.00;99.90
24802;DHT22;12898;50.520;12.152;2024-03-23T11:09:52;8.00;99.90
24802;DHT22;12898;50.520;12.152;2024-03-23T11:14:52;7.80;99.90
24802;DHT22;12898;50.520;12.152;2024-03-23T11:17:23;7.70;99.90
24802;DHT22;12898;50.520;12.152;2024-03-23T11:19:54;7.80;99.90
24802;DHT22;12898;50.520;12.152;2024-03-23T11:27:46;8.70;99.90
24802;DHT22;12898;50.520;12.152;2024-03-23T11:30:27;8.70;99.90
24802;DHT22;12898;50.520;12.152;2024-03-23T11:32:57;8.90;99.90
24802;DHT22;12898;50.520;12.152;2024-03-23T11:35:39;8.90;99.90
24802;DHT22;12898;50.520;12.152;2024-03-23T11:38:16;9.00;99.90
24802;DHT22;12898;50.520;12.152;2024-03-23T11:40:47;9.00;99.90
24802;DHT22;12898;50.520;12.152;2024-03-23T11:43:15;9.10;99.90
24802;DHT22;12898;50.520;12.152;2024-03-23T11:45:43;9.10;99.90
24802;DHT22;12898;50.520;12.152;2024-03-23T11:48:17;9.30;99.90
24802;DHT22;12898;50.520;12.152;2024-03-23T11:50:45;9.50;99.90
24802;DHT22;12898;50.520;12.152;2024-03-23T11:53:21;9.70;99.90
24802;DHT22;12898;50.520;12.152;2024-03-23T11:55:54;9.90;97.60
24802;DHT22;12898;50.520;12.152;2024-03-23T11:58:22;9.80;94.70
24802;DHT22;12898;50.520;12.152;2024-03-23T12:00:51;9.40;95.10
24802;DHT22;12898;50.520;12.152;2024-03-23T12:03:18;9.10;95.90
24802;DHT22;12898;50.520;12.152;2024-03-23T12:05:50;8.80;97.80
24802;DHT22;12898;50.520;12.152;2024-03-23T12:08:22;8.70;99.90
24802;DHT22;12898;50.520;12.152;2024-03-23T12:11:04;8.70;99.40
24802;DHT22;12898;50.520;12.152;2024-03-23T12:13:41;8.60;95.50
24802;DHT22;12898;50.520;12.152;2024-03-23T12:16:16;8.60;98.80
24802;DHT22;12898;50.520;12.152;2024-03-23T12:18:47;8.90;98.20
24802;DHT22;12898;50.520;12.152;2024-03-23T12:21:14;9.30;98.20
24802;DHT22;12898;50.520;12.152;2024-03-23T12:23:40;9.60;98.30
24802;DHT22;12898;50.520;12.152;2024-03-23T12:26:07;10.10;98.50
24802;DHT22;12898;50.520;12.152;2024-03-23T12:28:33;10.50;94.90
24802;DHT22;12898;50.520;12.152;2024-03-23T12:30:59;10.70;93.90
24802;DHT22;12898;50.520;12.152;2024-03-23T12:33:24;10.40;86.70
24802;DHT22;12898;50.520;12.152;2024-03-23T12:35:50;10.30;90.90
24802;DHT22;12898;50.520;12.152;2024-03-23T12:38:18;10.30;92.60
24802;DHT22;12898;50.520;12.152;2024-03-23T12:40:47;10.30;89.30
24802;DHT22;12898;50.520;12.152;2024-03-23T12:43:14;10.30;86.80
24802;DHT22;12898;50.520;12.152;2024-03-23T12:45:40;10.10;86.10
24802;DHT22;12898;50.520;12.152;2024-03-23T12:48:06;9.70;87.50
24802;DHT22;12898;50.520;12.152;2024-03-23T12:50:32;9.50;90.30
24802;DHT22;12898;50.520;12.152;2024-03-23T12:52:58;9.70;91.40
24802;DHT22;12898;50.520;12.152;2024-03-23T12:55:24;10.00;91.10
24802;DHT22;12898;50.520;12.152;2024-03-23T12:57:49;10.70;90.80
24802;DHT22;12898;50.520;12.152;2024-03-23T13:00:15;11.00;84.70
24802;DHT22;12898;50.520;12.152;2024-03-23T13:02:42;10.60;84.10
24802;DHT22;12898;50.520;12.152;2024-03-23T13:05:08;10.00;82.00
24802;DHT22;12898;50.520;12.152;2024-03-23T13:07:35;9.70;87.90
24802;DHT22;12898;50.520;12.152;2024-03-23T13:10:01;9.70;89.50
24802;DHT22;12898;50.520;12.152;2024-03-23T13:12:27;9.90;90.50
24802;DHT22;12898;50.520;12.152;2024-03-23T13:14:53;10.10;90.20
24802;DHT22;12898;50.520;12.152;2024-03-23T13:17:19;10.00;87.90
24802;DHT22;12898;50.520;12.152;2024-03-23T13:19:44;9.90;90.20
24802;DHT22;12898;50.520;12.152;2024-03-23T13:22:10;9.70;90.90
24802;DHT22;12898;50.520;12.152;2024-03-23T13:24:37;10.20;92.40
24802;DHT22;12898;50.520;12.152;2024-03-23T13:27:04;10.80;90.00
24802;DHT22;12898;50.520;12.152;2024-03-23T13:29:33;11.10;88.90
24802;DHT22;12898;50.520;12.152;2024-03-23T13:32:00;11.30;81.40
24802;DHT22;12898;50.520;12.152;2024-03-23T13:34:25;11.60;82.60
24802;DHT22;12898;50.520;12.152;2024-03-23T13:36:51;11.60;82.70
24802;DHT22;12898;50.520;12.152;2024-03-23T13:39:17;11.80;82.90
24802;DHT22;12898;50.520;12.152;2024-03-23T13:41:44;11.90;78.60
24802;DHT22;12898;50.520;12.152;2024-03-23T13:44:13;11.70;78.20
24802;DHT22;12898;50.520;12.152;2024-03-23T13:46:40;11.70;76.50
24802;DHT22;12898;50.520;12.152;2024-03-23T13:49:28;11.80;77.00
24802;DHT22;12898;50.520;12.152;2024-03-23T13:51:56;11.80;73.80
24802;DHT22;12898;50.520;12.152;2024-03-23T13:54:26;11.80;76.10
24802;DHT22;12898;50.520;12.152;2024-03-23T13:56:54;11.70;76.20
24802;DHT22;12898;50.520;12.152;2024-03-23T13:59:21;11.30;74.90
24802;DHT22;12898;50.520;12.152;2024-03-23T14:01:48;11.00;77.80
24802;DHT22;12898;50.520;12.152;2024-03-23T14:04:15;10.90;78.50
24802;DHT22;12898;50.520;12.152;2024-03-23T14:06:48;11.00;78.20
24802;DHT22;12898;50.520;12.152;2024-03-23T14:09:14;11.00;76.70
24802;DHT22;12898;50.520;12.152;2024-03-23T14:11:41;11.00;74.80
24802;DHT22;12898;50.520;12.152;2024-03-23T14:14:09;10.80;74.80
24802;DHT22;12898;50.520;12.152;2024-03-23T14:16:35;11.00;73.40
24802;DHT22;12898;50.520;12.152;2024-03-23T14:19:01;11.00;73.20
24802;DHT22;12898;50.520;12.152;2024-03-23T14:21:26;11.00;72.10
24802;DHT22;12898;50.520;12.152;2024-03-23T14:23:52;11.40;73.10
24802;DHT22;12898;50.520;12.152;2024-03-23T14:26:19;11.60;68.50
24802;DHT22;12898;50.520;12.152;2024-03-23T14:28:45;11.70;66.10
24802;DHT22;12898;50.520;12.152;2024-03-23T14:31:11;11.80;67.80
24802;DHT22;12898;50.520;12.152;2024-03-23T14:33:38;12.00;65.00
24802;DHT22;12898;50.520;12.152;2024-03-23T14:36:06;11.90;62.10
24802;DHT22;12898;50.520;12.152;2024-03-23T14:38:32;11.90;58.90
24802;DHT22;12898;50.520;12.152;2024-03-23T14:40:59;11.90;63.10
24802;DHT22;12898;50.520;12.152;2024-03-23T14:43:26;11.50;60.90
24802;DHT22;12898;50.520;12.152;2024-03-23T14:46:10;11.40;61.80
24802;DHT22;12898;50.520;12.152;2024-03-23T14:48:38;11.30;61.90
24802;DHT22;12898;50.520;12.152;2024-03-23T14:51:05;11.50;60.10
24802;DHT22;12898;50.520;12.152;2024-03-23T14:53:36;11.70;63.00
24802;DHT22;12898;50.520;12.152;2024-03-23T14:56:03;11.60;58.60
24802;DHT22;12898;50.520;12.152;2024-03-23T14:58:29;11.50;59.20
24802;DHT22;12898;50.520;12.152;2024-03-23T15:01:05;11.50;63.40
24802;DHT22;12898;50.520;12.152;2024-03-23T15:03:35;11.90;61.60
24802;DHT22;12898;50.520;12.152;2024-03-23T15:06:01;12.20;60.50
24802;DHT22;12898;50.520;12.152;2024-03-23T15:08:28;12.30;62.40
24802;DHT22;12898;50.520;12.152;2024-03-23T15:10:54;12.60;60.40
24802;DHT22;12898;50.520;12.152;2024-03-23T15:13:20;12.80;60.20
24802;DHT22;12898;50.520;12.152;2024-03-23T15:15:49;12.70;60.90
24802;DHT22;12898;50.520;12.152;2024-03-23T15:18:16;12.30;62.20
24802;DHT22;12898;50.520;12.152;2024-03-23T15:21:00;12.00;59.90
24802;DHT22;12898;50.520;12.152;2024-03-23T15:23:33;11.60;63.70
24802;DHT22;12898;50.520;12.152;2024-03-23T15:26:00;11.20;60.90
24802;DHT22;12898;50.520;12.152;2024-03-23T15:28:27;11.20;62.90
24802;DHT22;12898;50.520;12.152;2024-03-23T15:31:06;11.20;63.90
24802;DHT22;12898;50.520;12.152;2024-03-23T15:33:33;11.00;62.10
24802;DHT22;12898;50.520;12.152;2024-03-23T15:35:59;10.60;64.00
24802;DHT22;12898;50.520;12.152;2024-03-23T15:38:26;10.30;67.80
24802;DHT22;12898;50.520;12.152;2024-03-23T15:40:52;10.00;66.70
24802;DHT22;12898;50.520;12.152;2024-03-23T15:43:19;9.80;65.80
24802;DHT22;12898;50.520;12.152;2024-03-23T15:45:53;9.60;69.40
24802;DHT22;12898;50.520;12.152;2024-03-23T15:48:19;9.50;67.40
24802;DHT22;12898;50.520;12.152;2024-03-23T15:50:51;9.40;69.00
24802;DHT22;12898;50.520;12.152;2024-03-23T15:53:21;9.40;73.70
24802;DHT22;12898;50.520;12.152;2024-03-23T15:56:00;9.50;74.20
24802;DHT22;12898;50.520;12.152;2024-03-23T15:58:27;9.60;72.60
24802;DHT22;12898;50.520;12.152;2024-03-23T16:00:57;9.70;70.80
24802;DHT22;12898;50.520;12.152;2024-03-23T16:03:26;9.50;71.30
24802;DHT22;12898;50.520;12.152;2024-03-23T16:05:53;9.30;71.70
24802;DHT22;12898;50.520;12.152;2024-03-23T16:08:23;9.20;73.50
24802;DHT22;12898;50.520;12.152;2024-03-23T16:10:49;9.00;73.20
24802;DHT22;12898;50.520;12.152;2024-03-23T16:13:16;9.00;75.50
24802;DHT22;12898;50.520;12.152;2024-03-23T16:15:44;8.90;76.00
24802;DHT22;12898;50.520;12.152;2024-03-23T16:18:10;8.90;77.50
24802;DHT22;12898;50.520;12.152;2024-03-23T16:20:36;8.70;74.10
24802;DHT22;12898;50.520;12.152;2024-03-23T16:23:03;8.60;74.00
24802;DHT22;12898;50.520;12.152;2024-03-23T16:25:29;8.50;76.30
24802;DHT22;12898;50.520;12.152;2024-03-23T16:27:56;8.40;76.00
24802;DHT22;12898;50.520;12.152;2024-03-23T16:30:21;8.30;76.50
24802;DHT22;12898;50.520;12.152;2024-03-23T16:32:47;8.20;79.10
24802;DHT22;12898;50.520;12.152;2024-03-23T16:35:14;8.10;77.90
24802;DHT22;12898;50.520;12.152;2024-03-23T16:37:40;8.10;78.30